sensor_id;sensor_type;location;lat;lon;timestamp;P1;durP1;ratioP1;P2;durP2;ratioP2
57842;SDS011;43673;51.058;3.734;2022-07-06T00:01:41;13.50;;;9.77;;
57842;SDS011;43673;51.058;3.734;2022-07-06T00:04:07;26.40;;;12.10;;
57842;SDS011;43673;51.058;3.734;2022-07-06T00:06:33;15.95;;;10.05;;
57842;SDS011;43673;51.058;3.734;2022-07-06T00:08:59;15.63;;;9.65;;
57842;SDS011;43673;51.058;3.734;2022-07-06T00:11:25;14.85;;;8.57;;
57842;SDS011;43673;51.058;3.734;2022-07-06T00:13:51;11.20;;;7.25;;
57842;SDS011;43673;51.058;3.734;2022-07-06T00:16:17;10.43;;;7.60;;
57842;SDS011;43673;51.058;3.734;2022-07-06T00:18:44;9.85;;;7.53;;
57842;SDS011;43673;51.058;3.734;2022-07-06T00:21:10;13.60;;;7.45;;
57842;SDS011;43673;51.058;3.734;2022-07-06T00:23:36;13.48;;;8.30;;
57842;SDS011;43673;51.058;3.734;2022-07-06T00:28:38;11.70;;;7.38;;
57842;SDS011;43673;51.058;3.734;2022-07-06T00:34:21;13.73;;;7.28;;
57842;SDS011;43673;51.058;3.734;2022-07-06T00:37:01;11.38;;;7.80;;
57842;SDS011;43673;51.058;3.734;2022-07-06T00:40:15;11.13;;;7.28;;
57842;SDS011;43673;51.058;3.734;2022-07-06T00:42:44;12.77;;;7.10;;
57842;SDS011;43673;51.058;3.734;2022-07-06T00:45:12;13.65;;;7.05;;
57842;SDS011;43673;51.058;3.734;2022-07-06T00:47:42;12.63;;;7.78;;
57842;SDS011;43673;51.058;3.734;2022-07-06T00:50:09;11.35;;;7.40;;
57842;SDS011;43673;51.058;3.734;2022-07-06T00:52:43;16.25;;;8.27;;
57842;SDS011;43673;51.058;3.734;2022-07-06T00:55:11;14.07;;;8.60;;
57842;SDS011;43673;51.058;3.734;2022-07-06T00:57:38;14.57;;;8.20;;
57842;SDS011;43673;51.058;3.734;2022-07-06T01:00:06;11.85;;;8.02;;
57842;SDS011;43673;51.058;3.734;2022-07-06T01:02:36;9.13;;;6.30;;
57842;SDS011;43673;51.058;3.734;2022-07-06T01:05:05;10.50;;;7.07;;
57842;SDS011;43673;51.058;3.734;2022-07-06T01:07:33;9.90;;;6.85;;
57842;SDS011;43673;51.058;3.734;2022-07-06T01:09:59;14.10;;;7.80;;
57842;SDS011;43673;51.058;3.734;2022-07-06T01:12:25;10.73;;;7.53;;
57842;SDS011;43673;51.058;3.734;2022-07-06T01:14:51;11.50;;;6.53;;
57842;SDS011;43673;51.058;3.734;2022-07-06T01:17:17;7.63;;;6.57;;
57842;SDS011;43673;51.058;3.734;2022-07-06T01:19:43;9.57;;;6.35;;
57842;SDS011;43673;51.058;3.734;2022-07-06T01:22:09;8.98;;;6.55;;
57842;SDS011;43673;51.058;3.734;2022-07-06T01:24:35;12.63;;;6.10;;
57842;SDS011;43673;51.058;3.734;2022-07-06T01:27:05;11.48;;;5.97;;
57842;SDS011;43673;51.058;3.734;2022-07-06T01:29:31;8.63;;;6.53;;
57842;SDS011;43673;51.058;3.734;2022-07-06T01:31:57;12.20;;;6.13;;
57842;SDS011;43673;51.058;3.734;2022-07-06T01:34:23;7.70;;;5.78;;
57842;SDS011;43673;51.058;3.734;2022-07-06T01:36:49;10.65;;;5.80;;
57842;SDS011;43673;51.058;3.734;2022-07-06T01:39:15;12.20;;;6.57;;
57842;SDS011;43673;51.058;3.734;2022-07-06T01:41:40;11.27;;;6.45;;
57842;SDS011;43673;51.058;3.734;2022-07-06T01:44:06;14.57;;;6.88;;
57842;SDS011;43673;51.058;3.734;2022-07-06T01:46:33;6.90;;;6.10;;
57842;SDS011;43673;51.058;3.734;2022-07-06T01:48:58;9.10;;;5.45;;
57842;SDS011;43673;51.058;3.734;2022-07-06T01:51:24;12.52;;;5.35;;
57842;SDS011;43673;51.058;3.734;2022-07-06T01:53:50;12.20;;;5.82;;
57842;SDS011;43673;51.058;3.734;2022-07-06T01:56:16;10.30;;;5.53;;
57842;SDS011;43673;51.058;3.734;2022-07-06T01:58:44;11.25;;;6.60;;
57842;SDS011;43673;51.058;3.734;2022-07-06T02:01:11;9.65;;;5.82;;
57842;SDS011;43673;51.058;3.734;2022-07-06T02:03:41;8.73;;;6.10;;
57842;SDS011;43673;51.058;3.734;2022-07-06T02:06:08;13.23;;;6.80;;
57842;SDS011;43673;51.058;3.734;2022-07-06T02:08:34;9.38;;;6.53;;
57842;SDS011;43673;51.058;3.734;2022-07-06T02:11:01;8.23;;;6.53;;
57842;SDS011;43673;51.058;3.734;2022-07-06T02:13:28;9.52;;;6.75;;
57842;SDS011;43673;51.058;3.734;2022-07-06T02:15:53;8.77;;;6.70;;
57842;SDS011;43673;51.058;3.734;2022-07-06T02:18:19;12.48;;;7.93;;
57842;SDS011;43673;51.058;3.734;2022-07-06T02:20:45;12.05;;;7.10;;
57842;SDS011;43673;51.058;3.734;2022-07-06T02:23:11;14.10;;;7.57;;
57842;SDS011;43673;51.058;3.734;2022-07-06T02:25:37;12.50;;;8.55;;
57842;SDS011;43673;51.058;3.734;2022-07-06T02:28:02;10.77;;;7.93;;
57842;SDS011;43673;51.058;3.734;2022-07-06T02:30:28;14.18;;;7.65;;
57842;SDS011;43673;51.058;3.734;2022-07-06T02:32:54;12.98;;;7.25;;
57842;SDS011;43673;51.058;3.734;2022-07-06T02:35:20;13.55;;;7.97;;
57842;SDS011;43673;51.058;3.734;2022-07-06T02:37:45;11.13;;;7.10;;
57842;SDS011;43673;51.058;3.734;2022-07-06T02:40:11;9.32;;;7.65;;
57842;SDS011;43673;51.058;3.734;2022-07-06T02:42:37;12.98;;;6.93;;
57842;SDS011;43673;51.058;3.734;2022-07-06T02:45:04;9.02;;;7.82;;
57842;SDS011;43673;51.058;3.734;2022-07-06T02:47:30;14.52;;;8.38;;
57842;SDS011;43673;51.058;3.734;2022-07-06T02:49:56;12.70;;;7.03;;
57842;SDS011;43673;51.058;3.734;2022-07-06T02:52:22;13.52;;;7.90;;
57842;SDS011;43673;51.058;3.734;2022-07-06T02:54:47;8.45;;;6.90;;
57842;SDS011;43673;51.058;3.734;2022-07-06T02:57:14;9.98;;;7.35;;
57842;SDS011;43673;51.058;3.734;2022-07-06T02:59:40;9.73;;;7.00;;
57842;SDS011;43673;51.058;3.734;2022-07-06T03:02:06;13.98;;;7.97;;
57842;SDS011;43673;51.058;3.734;2022-07-06T03:04:32;11.80;;;6.97;;
57842;SDS011;43673;51.058;3.734;2022-07-06T03:06:58;10.40;;;6.93;;
57842;SDS011;43673;51.058;3.734;2022-07-06T03:09:24;15.73;;;8.45;;
57842;SDS011;43673;51.058;3.734;2022-07-06T03:11:50;14.50;;;9.50;;
57842;SDS011;43673;51.058;3.734;2022-07-06T03:14:16;13.27;;;7.38;;
57842;SDS011;43673;51.058;3.734;2022-07-06T03:16:41;12.57;;;7.97;;
57842;SDS011;43673;51.058;3.734;2022-07-06T03:19:07;12.10;;;8.43;;
57842;SDS011;43673;51.058;3.734;2022-07-06T03:21:33;10.98;;;8.07;;
57842;SDS011;43673;51.058;3.734;2022-07-06T03:23:58;15.23;;;7.95;;
57842;SDS011;43673;51.058;3.734;2022-07-06T03:26:24;16.75;;;8.40;;
57842;SDS011;43673;51.058;3.734;2022-07-06T03:28:50;9.80;;;7.40;;
57842;SDS011;43673;51.058;3.734;2022-07-06T03:31:15;9.48;;;7.20;;
57842;SDS011;43673;51.058;3.734;2022-07-06T03:33:41;11.48;;;8.10;;
57842;SDS011;43673;51.058;3.734;2022-07-06T03:36:07;13.10;;;7.80;;
57842;SDS011;43673;51.058;3.734;2022-07-06T03:38:33;17.38;;;8.88;;
57842;SDS011;43673;51.058;3.734;2022-07-06T03:40:59;14.65;;;8.48;;
57842;SDS011;43673;51.058;3.734;2022-07-06T03:43:25;14.02;;;8.77;;
57842;SDS011;43673;51.058;3.734;2022-07-06T03:45:50;14.27;;;8.48;;
57842;SDS011;43673;51.058;3.734;2022-07-06T03:48:16;16.15;;;8.23;;
57842;SDS011;43673;51.058;3.734;2022-07-06T03:50:42;12.15;;;7.35;;
57842;SDS011;43673;51.058;3.734;2022-07-06T03:53:07;11.98;;;8.48;;
57842;SDS011;43673;51.058;3.734;2022-07-06T03:55:33;13.95;;;8.30;;
57842;SDS011;43673;51.058;3.734;2022-07-06T03:57:59;17.17;;;9.10;;
57842;SDS011;43673;51.058;3.734;2022-07-06T04:00:25;14.88;;;8.18;;
57842;SDS011;43673;51.058;3.734;2022-07-06T04:02:52;13.05;;;9.20;;
57842;SDS011;43673;51.058;3.734;2022-07-06T04:05:18;14.95;;;9.20;;
57842;SDS011;43673;51.058;3.734;2022-07-06T04:07:47;13.63;;;8.63;;
57842;SDS011;43673;51.058;3.734;2022-07-06T04:10:13;17.23;;;9.45;;
57842;SDS011;43673;51.058;3.734;2022-07-06T04:12:43;10.40;;;8.25;;
57842;SDS011;43673;51.058;3.734;2022-07-06T04:15:10;13.00;;;8.57;;
57842;SDS011;43673;51.058;3.734;2022-07-06T04:17:37;20.17;;;9.38;;
57842;SDS011;43673;51.058;3.734;2022-07-06T04:20:19;15.95;;;9.90;;
57842;SDS011;43673;51.058;3.734;2022-07-06T04:22:46;11.63;;;8.98;;
57842;SDS011;43673;51.058;3.734;2022-07-06T04:25:12;14.68;;;8.55;;
57842;SDS011;43673;51.058;3.734;2022-07-06T04:27:37;10.70;;;8.63;;
57842;SDS011;43673;51.058;3.734;2022-07-06T04:30:04;10.60;;;8.40;;
57842;SDS011;43673;51.058;3.734;2022-07-06T04:32:31;11.30;;;8.93;;
57842;SDS011;43673;51.058;3.734;2022-07-06T04:34:56;14.60;;;8.13;;
57842;SDS011;43673;51.058;3.734;2022-07-06T04:37:22;18.90;;;10.57;;
57842;SDS011;43673;51.058;3.734;2022-07-06T04:39:48;13.32;;;9.50;;
57842;SDS011;43673;51.058;3.734;2022-07-06T04:42:14;14.35;;;9.20;;
57842;SDS011;43673;51.058;3.734;2022-07-06T04:44:40;11.30;;;7.47;;
57842;SDS011;43673;51.058;3.734;2022-07-06T04:47:05;11.30;;;8.10;;
57842;SDS011;43673;51.058;3.734;2022-07-06T04:49:31;12.70;;;7.95;;
57842;SDS011;43673;51.058;3.734;2022-07-06T04:51:57;15.85;;;8.55;;
57842;SDS011;43673;51.058;3.734;2022-07-06T04:54:23;11.30;;;8.35;;
57842;SDS011;43673;51.058;3.734;2022-07-06T04:56:49;16.85;;;7.50;;
57842;SDS011;43673;51.058;3.734;2022-07-06T04:59:15;10.43;;;8.27;;
57842;SDS011;43673;51.058;3.734;2022-07-06T05:01:41;11.13;;;8.40;;
57842;SDS011;43673;51.058;3.734;2022-07-06T05:04:07;14.38;;;8.75;;
57842;SDS011;43673;51.058;3.734;2022-07-06T05:06:33;16.73;;;8.25;;
57842;SDS011;43673;51.058;3.734;2022-07-06T05:08:59;16.48;;;10.35;;
57842;SDS011;43673;51.058;3.734;2022-07-06T05:11:25;13.15;;;8.52;;
57842;SDS011;43673;51.058;3.734;2022-07-06T05:13:51;11.75;;;8.57;;
57842;SDS011;43673;51.058;3.734;2022-07-06T05:16:17;11.02;;;7.90;;
57842;SDS011;43673;51.058;3.734;2022-07-06T05:18:43;15.93;;;8.70;;
57842;SDS011;43673;51.058;3.734;2022-07-06T05:21:08;10.63;;;7.95;;
57842;SDS011;43673;51.058;3.734;2022-07-06T05:23:34;13.75;;;9.00;;
57842;SDS011;43673;51.058;3.734;2022-07-06T05:26:00;11.13;;;7.68;;
57842;SDS011;43673;51.058;3.734;2022-07-06T05:28:25;18.08;;;8.85;;
57842;SDS011;43673;51.058;3.734;2022-07-06T05:30:51;18.38;;;9.65;;
57842;SDS011;43673;51.058;3.734;2022-07-06T05:33:17;12.88;;;8.90;;
57842;SDS011;43673;51.058;3.734;2022-07-06T05:35:43;13.07;;;7.70;;
57842;SDS011;43673;51.058;3.734;2022-07-06T05:38:09;11.32;;;8.30;;
57842;SDS011;43673;51.058;3.734;2022-07-06T05:40:35;15.40;;;8.73;;
57842;SDS011;43673;51.058;3.734;2022-07-06T05:43:01;17.17;;;9.18;;
57842;SDS011;43673;51.058;3.734;2022-07-06T05:45:27;13.65;;;8.73;;
57842;SDS011;43673;51.058;3.734;2022-07-06T05:47:53;12.95;;;8.65;;
57842;SDS011;43673;51.058;3.734;2022-07-06T05:50:37;15.73;;;10.43;;
57842;SDS011;43673;51.058;3.734;2022-07-06T05:53:04;13.18;;;9.25;;
57842;SDS011;43673;51.058;3.734;2022-07-06T05:55:30;12.23;;;8.93;;
57842;SDS011;43673;51.058;3.734;2022-07-06T05:57:56;12.63;;;9.05;;
57842;SDS011;43673;51.058;3.734;2022-07-06T06:00:22;15.07;;;8.32;;
57842;SDS011;43673;51.058;3.734;2022-07-06T06:02:54;12.45;;;9.18;;
57842;SDS011;43673;51.058;3.734;2022-07-06T06:05:21;14.45;;;9.30;;
57842;SDS011;43673;51.058;3.734;2022-07-06T06:07:46;14.30;;;9.68;;
57842;SDS011;43673;51.058;3.734;2022-07-06T06:10:14;10.85;;;8.27;;
57842;SDS011;43673;51.058;3.734;2022-07-06T06:12:41;11.07;;;8.10;;
57842;SDS011;43673;51.058;3.734;2022-07-06T06:15:07;14.15;;;9.55;;
57842;SDS011;43673;51.058;3.734;2022-07-06T06:17:34;16.35;;;9.65;;
57842;SDS011;43673;51.058;3.734;2022-07-06T06:20:01;9.95;;;7.68;;
57842;SDS011;43673;51.058;3.734;2022-07-06T06:22:30;16.77;;;7.30;;
57842;SDS011;43673;51.058;3.734;2022-07-06T06:24:56;9.38;;;7.50;;
57842;SDS011;43673;51.058;3.734;2022-07-06T06:27:22;9.23;;;7.90;;
57842;SDS011;43673;51.058;3.734;2022-07-06T06:29:47;13.60;;;6.90;;
57842;SDS011;43673;51.058;3.734;2022-07-06T06:32:13;9.60;;;7.50;;
57842;SDS011;43673;51.058;3.734;2022-07-06T06:34:39;10.88;;;5.57;;
57842;SDS011;43673;51.058;3.734;2022-07-06T06:37:05;10.95;;;8.00;;
57842;SDS011;43673;51.058;3.734;2022-07-06T06:39:31;12.00;;;5.22;;
57842;SDS011;43673;51.058;3.734;2022-07-06T06:41:57;8.18;;;6.07;;
57842;SDS011;43673;51.058;3.734;2022-07-06T06:44:23;8.15;;;5.70;;
57842;SDS011;43673;51.058;3.734;2022-07-06T06:46:49;9.23;;;5.03;;
57842;SDS011;43673;51.058;3.734;2022-07-06T06:49:17;7.78;;;4.75;;
57842;SDS011;43673;51.058;3.734;2022-07-06T06:51:43;6.72;;;5.03;;
57842;SDS011;43673;51.058;3.734;2022-07-06T06:54:09;7.15;;;5.72;;
57842;SDS011;43673;51.058;3.734;2022-07-06T06:56:35;9.13;;;5.68;;
57842;SDS011;43673;51.058;3.734;2022-07-06T06:59:01;7.82;;;4.65;;
57842;SDS011;43673;51.058;3.734;2022-07-06T07:01:27;8.13;;;4.10;;
57842;SDS011;43673;51.058;3.734;2022-07-06T07:03:54;7.80;;;4.55;;
57842;SDS011;43673;51.058;3.734;2022-07-06T07:06:20;7.93;;;4.45;;
57842;SDS011;43673;51.058;3.734;2022-07-06T07:08:46;6.18;;;4.18;;
57842;SDS011;43673;51.058;3.734;2022-07-06T07:11:13;8.85;;;4.55;;
57842;SDS011;43673;51.058;3.734;2022-07-06T07:13:42;7.10;;;4.30;;
57842;SDS011;43673;51.058;3.734;2022-07-06T07:16:09;8.55;;;4.30;;
57842;SDS011;43673;51.058;3.734;2022-07-06T07:18:35;9.38;;;4.72;;
57842;SDS011;43673;51.058;3.734;2022-07-06T07:21:00;10.13;;;5.65;;
57842;SDS011;43673;51.058;3.734;2022-07-06T07:23:26;7.78;;;4.38;;
57842;SDS011;43673;51.058;3.734;2022-07-06T07:25:52;9.63;;;4.30;;
57842;SDS011;43673;51.058;3.734;2022-07-06T07:28:18;6.25;;;4.57;;
57842;SDS011;43673;51.058;3.734;2022-07-06T07:30:43;10.55;;;7.30;;
57842;SDS011;43673;51.058;3.734;2022-07-06T07:40:58;3.80;;;3.15;;
57842;SDS011;43673;51.058;3.734;2022-07-06T07:43:24;6.20;;;3.10;;
57842;SDS011;43673;51.058;3.734;2022-07-06T07:45:53;7.72;;;3.17;;
57842;SDS011;43673;51.058;3.734;2022-07-06T07:48:18;6.35;;;4.05;;
57842;SDS011;43673;51.058;3.734;2022-07-06T07:50:45;9.00;;;3.92;;
57842;SDS011;43673;51.058;3.734;2022-07-06T07:53:10;6.28;;;3.38;;
57842;SDS011;43673;51.058;3.734;2022-07-06T07:55:36;6.18;;;4.10;;
57842;SDS011;43673;51.058;3.734;2022-07-06T07:58:03;5.63;;;3.90;;
57842;SDS011;43673;51.058;3.734;2022-07-06T08:00:29;10.57;;;3.50;;
57842;SDS011;43673;51.058;3.734;2022-07-06T08:02:55;7.60;;;3.88;;
57842;SDS011;43673;51.058;3.734;2022-07-06T08:05:21;5.47;;;4.75;;
57842;SDS011;43673;51.058;3.734;2022-07-06T08:07:47;6.32;;;3.67;;
57842;SDS011;43673;51.058;3.734;2022-07-06T08:10:12;3.50;;;3.17;;
57842;SDS011;43673;51.058;3.734;2022-07-06T08:12:38;7.95;;;3.90;;
57842;SDS011;43673;51.058;3.734;2022-07-06T08:15:04;5.60;;;3.70;;
57842;SDS011;43673;51.058;3.734;2022-07-06T08:17:30;5.50;;;3.70;;
57842;SDS011;43673;51.058;3.734;2022-07-06T08:19:56;5.57;;;3.58;;
57842;SDS011;43673;51.058;3.734;2022-07-06T08:22:22;5.93;;;3.90;;
57842;SDS011;43673;51.058;3.734;2022-07-06T08:24:48;8.23;;;4.22;;
57842;SDS011;43673;51.058;3.734;2022-07-06T08:27:13;8.98;;;3.83;;
57842;SDS011;43673;51.058;3.734;2022-07-06T08:35:58;26.55;;;17.38;;
57842;SDS011;43673;51.058;3.734;2022-07-06T08:40:55;8.65;;;5.97;;
57842;SDS011;43673;51.058;3.734;2022-07-06T08:43:21;7.32;;;4.82;;
57842;SDS011;43673;51.058;3.734;2022-07-06T08:45:48;5.35;;;4.22;;
57842;SDS011;43673;51.058;3.734;2022-07-06T08:48:17;7.15;;;4.70;;
57842;SDS011;43673;51.058;3.734;2022-07-06T08:50:44;7.88;;;4.55;;
57842;SDS011;43673;51.058;3.734;2022-07-06T08:53:10;9.15;;;4.32;;
57842;SDS011;43673;51.058;3.734;2022-07-06T08:55:36;6.38;;;4.10;;
57842;SDS011;43673;51.058;3.734;2022-07-06T08:58:02;7.57;;;4.70;;
57842;SDS011;43673;51.058;3.734;2022-07-06T09:00:30;7.75;;;4.80;;
57842;SDS011;43673;51.058;3.734;2022-07-06T09:02:58;9.30;;;5.40;;
57842;SDS011;43673;51.058;3.734;2022-07-06T09:05:24;8.60;;;4.50;;
57842;SDS011;43673;51.058;3.734;2022-07-06T09:07:51;8.60;;;4.30;;
57842;SDS011;43673;51.058;3.734;2022-07-06T09:10:18;5.60;;;5.03;;
57842;SDS011;43673;51.058;3.734;2022-07-06T09:12:46;6.40;;;4.53;;
57842;SDS011;43673;51.058;3.734;2022-07-06T09:15:12;10.77;;;4.63;;
57842;SDS011;43673;51.058;3.734;2022-07-06T09:17:39;8.80;;;4.30;;
57842;SDS011;43673;51.058;3.734;2022-07-06T09:20:07;10.68;;;4.22;;
57842;SDS011;43673;51.058;3.734;2022-07-06T09:22:37;10.40;;;3.67;;
57842;SDS011;43673;51.058;3.734;2022-07-06T09:25:13;14.23;;;4.22;;
57842;SDS011;43673;51.058;3.734;2022-07-06T09:27:44;8.60;;;4.00;;
57842;SDS011;43673;51.058;3.734;2022-07-06T09:30:13;6.82;;;3.92;;
57842;SDS011;43673;51.058;3.734;2022-07-06T09:32:40;5.90;;;3.28;;
57842;SDS011;43673;51.058;3.734;2022-07-06T09:35:08;6.30;;;3.97;;
57842;SDS011;43673;51.058;3.734;2022-07-06T09:37:43;6.07;;;3.60;;
57842;SDS011;43673;51.058;3.734;2022-07-06T09:40:16;6.88;;;4.32;;
57842;SDS011;43673;51.058;3.734;2022-07-06T09:42:43;5.60;;;3.78;;
57842;SDS011;43673;51.058;3.734;2022-07-06T09:45:09;10.43;;;3.70;;
57842;SDS011;43673;51.058;3.734;2022-07-06T09:47:34;8.90;;;3.97;;
57842;SDS011;43673;51.058;3.734;2022-07-06T09:50:04;5.97;;;3.65;;
57842;SDS011;43673;51.058;3.734;2022-07-06T09:52:33;13.80;;;5.70;;
57842;SDS011;43673;51.058;3.734;2022-07-06T09:54:59;4.82;;;3.40;;
57842;SDS011;43673;51.058;3.734;2022-07-06T09:57:25;7.47;;;3.83;;
57842;SDS011;43673;51.058;3.734;2022-07-06T09:59:51;5.78;;;3.47;;
57842;SDS011;43673;51.058;3.734;2022-07-06T10:02:17;5.97;;;3.95;;
57842;SDS011;43673;51.058;3.734;2022-07-06T10:04:45;8.15;;;3.75;;
57842;SDS011;43673;51.058;3.734;2022-07-06T10:07:13;8.30;;;4.15;;
57842;SDS011;43673;51.058;3.734;2022-07-06T10:09:40;10.50;;;4.30;;
57842;SDS011;43673;51.058;3.734;2022-07-06T10:12:07;6.20;;;4.32;;
57842;SDS011;43673;51.058;3.734;2022-07-06T10:14:40;4.75;;;3.72;;
57842;SDS011;43673;51.058;3.734;2022-07-06T10:17:07;4.80;;;2.97;;
57842;SDS011;43673;51.058;3.734;2022-07-06T10:19:33;6.28;;;2.92;;
57842;SDS011;43673;51.058;3.734;2022-07-06T10:21:59;5.35;;;3.55;;
57842;SDS011;43673;51.058;3.734;2022-07-06T10:24:27;4.53;;;2.88;;
57842;SDS011;43673;51.058;3.734;2022-07-06T10:26:53;4.15;;;3.20;;
57842;SDS011;43673;51.058;3.734;2022-07-06T10:29:20;4.43;;;3.95;;
57842;SDS011;43673;51.058;3.734;2022-07-06T10:31:47;8.85;;;4.13;;
57842;SDS011;43673;51.058;3.734;2022-07-06T10:34:14;5.95;;;3.17;;
57842;SDS011;43673;51.058;3.734;2022-07-06T10:36:43;13.70;;;6.40;;
57842;SDS011;43673;51.058;3.734;2022-07-06T10:39:14;5.07;;;3.35;;
57842;SDS011;43673;51.058;3.734;2022-07-06T10:45:06;6.38;;;2.83;;
57842;SDS011;43673;51.058;3.734;2022-07-06T10:47:34;4.95;;;2.70;;
57842;SDS011;43673;51.058;3.734;2022-07-06T10:50:01;6.72;;;3.30;;
57842;SDS011;43673;51.058;3.734;2022-07-06T10:55:38;5.93;;;2.72;;
57842;SDS011;43673;51.058;3.734;2022-07-06T10:58:05;6.80;;;3.20;;
57842;SDS011;43673;51.058;3.734;2022-07-06T11:06:20;5.68;;;3.97;;
57842;SDS011;43673;51.058;3.734;2022-07-06T11:08:58;9.35;;;3.03;;
57842;SDS011;43673;51.058;3.734;2022-07-06T11:14:07;5.22;;;2.53;;
57842;SDS011;43673;51.058;3.734;2022-07-06T11:19:13;6.28;;;3.35;;
57842;SDS011;43673;51.058;3.734;2022-07-06T11:21:51;5.00;;;2.80;;
57842;SDS011;43673;51.058;3.734;2022-07-06T11:24:19;5.45;;;2.80;;
57842;SDS011;43673;51.058;3.734;2022-07-06T11:26:47;7.28;;;3.15;;
57842;SDS011;43673;51.058;3.734;2022-07-06T11:29:16;7.53;;;3.00;;
57842;SDS011;43673;51.058;3.734;2022-07-06T11:31:46;4.75;;;2.97;;
57842;SDS011;43673;51.058;3.734;2022-07-06T11:34:23;5.65;;;2.45;;
57842;SDS011;43673;51.058;3.734;2022-07-06T11:36:57;8.27;;;3.35;;
57842;SDS011;43673;51.058;3.734;2022-07-06T11:39:30;6.13;;;2.55;;
57842;SDS011;43673;51.058;3.734;2022-07-06T11:41:58;8.05;;;2.47;;
57842;SDS011;43673;51.058;3.734;2022-07-06T11:44:25;5.88;;;2.85;;
57842;SDS011;43673;51.058;3.734;2022-07-06T11:46:51;6.78;;;2.95;;
57842;SDS011;43673;51.058;3.734;2022-07-06T11:49:17;10.27;;;3.67;;
57842;SDS011;43673;51.058;3.734;2022-07-06T11:51:44;4.13;;;2.95;;
57842;SDS011;43673;51.058;3.734;2022-07-06T11:54:12;6.80;;;2.35;;
57842;SDS011;43673;51.058;3.734;2022-07-06T11:56:55;4.97;;;3.05;;
57842;SDS011;43673;51.058;3.734;2022-07-06T12:01:59;5.95;;;3.03;;
57842;SDS011;43673;51.058;3.734;2022-07-06T12:04:26;4.82;;;3.00;;
57842;SDS011;43673;51.058;3.734;2022-07-06T12:06:52;5.03;;;2.85;;
57842;SDS011;43673;51.058;3.734;2022-07-06T12:09:18;5.45;;;2.90;;
57842;SDS011;43673;51.058;3.734;2022-07-06T12:11:45;5.32;;;2.72;;
57842;SDS011;43673;51.058;3.734;2022-07-06T12:14:16;3.40;;;2.95;;
57842;SDS011;43673;51.058;3.734;2022-07-06T12:16:43;5.22;;;3.35;;
57842;SDS011;43673;51.058;3.734;2022-07-06T12:19:10;3.53;;;3.22;;
57842;SDS011;43673;51.058;3.734;2022-07-06T12:21:41;5.53;;;3.63;;
57842;SDS011;43673;51.058;3.734;2022-07-06T12:24:21;10.48;;;3.75;;
57842;SDS011;43673;51.058;3.734;2022-07-06T12:26:50;7.13;;;3.60;;
57842;SDS011;43673;51.058;3.734;2022-07-06T12:29:18;6.93;;;3.63;;
57842;SDS011;43673;51.058;3.734;2022-07-06T12:31:48;8.93;;;4.72;;
57842;SDS011;43673;51.058;3.734;2022-07-06T12:34:15;9.05;;;4.15;;
57842;SDS011;43673;51.058;3.734;2022-07-06T12:36:46;5.10;;;3.63;;
57842;SDS011;43673;51.058;3.734;2022-07-06T12:39:13;7.13;;;4.18;;
57842;SDS011;43673;51.058;3.734;2022-07-06T12:42:00;7.15;;;3.53;;
57842;SDS011;43673;51.058;3.734;2022-07-06T12:44:28;9.55;;;3.47;;
57842;SDS011;43673;51.058;3.734;2022-07-06T12:47:04;9.30;;;3.70;;
57842;SDS011;43673;51.058;3.734;2022-07-06T12:49:31;6.28;;;3.90;;
57842;SDS011;43673;51.058;3.734;2022-07-06T12:52:02;7.22;;;4.57;;
57842;SDS011;43673;51.058;3.734;2022-07-06T12:54:32;7.35;;;4.20;;
57842;SDS011;43673;51.058;3.734;2022-07-06T13:02:09;7.57;;;4.03;;
57842;SDS011;43673;51.058;3.734;2022-07-06T13:04:59;10.63;;;4.38;;
57842;SDS011;43673;51.058;3.734;2022-07-06T13:07:34;7.55;;;4.95;;
57842;SDS011;43673;51.058;3.734;2022-07-06T13:10:02;8.05;;;4.22;;
57842;SDS011;43673;51.058;3.734;2022-07-06T13:14:56;10.82;;;4.72;;
57842;SDS011;43673;51.058;3.734;2022-07-06T13:17:22;6.75;;;4.55;;
57842;SDS011;43673;51.058;3.734;2022-07-06T13:19:48;7.22;;;5.50;;
57842;SDS011;43673;51.058;3.734;2022-07-06T13:22:14;6.90;;;4.90;;
57842;SDS011;43673;51.058;3.734;2022-07-06T13:24:40;11.40;;;5.80;;
57842;SDS011;43673;51.058;3.734;2022-07-06T13:27:06;8.25;;;5.57;;
57842;SDS011;43673;51.058;3.734;2022-07-06T13:29:32;6.22;;;5.00;;
57842;SDS011;43673;51.058;3.734;2022-07-06T13:31:58;8.90;;;5.22;;
57842;SDS011;43673;51.058;3.734;2022-07-06T13:34:23;6.78;;;5.15;;
57842;SDS011;43673;51.058;3.734;2022-07-06T13:36:50;10.05;;;5.88;;
57842;SDS011;43673;51.058;3.734;2022-07-06T13:39:16;8.43;;;5.68;;
57842;SDS011;43673;51.058;3.734;2022-07-06T13:41:42;10.95;;;5.90;;
57842;SDS011;43673;51.058;3.734;2022-07-06T13:44:08;14.75;;;7.40;;
57842;SDS011;43673;51.058;3.734;2022-07-06T13:46:37;11.38;;;6.47;;
57842;SDS011;43673;51.058;3.734;2022-07-06T13:49:10;11.30;;;6.25;;
57842;SDS011;43673;51.058;3.734;2022-07-06T13:51:36;14.70;;;6.57;;
57842;SDS011;43673;51.058;3.734;2022-07-06T13:54:01;11.75;;;6.30;;
57842;SDS011;43673;51.058;3.734;2022-07-06T13:56:27;12.60;;;7.47;;
57842;SDS011;43673;51.058;3.734;2022-07-06T13:58:53;8.07;;;6.38;;
57842;SDS011;43673;51.058;3.734;2022-07-06T14:01:19;13.75;;;6.75;;
57842;SDS011;43673;51.058;3.734;2022-07-06T14:03:45;11.07;;;6.70;;
57842;SDS011;43673;51.058;3.734;2022-07-06T14:06:11;9.32;;;5.13;;
57842;SDS011;43673;51.058;3.734;2022-07-06T14:08:38;10.27;;;6.60;;
57842;SDS011;43673;51.058;3.734;2022-07-06T14:11:04;13.70;;;7.13;;
57842;SDS011;43673;51.058;3.734;2022-07-06T14:13:32;10.27;;;5.20;;
57842;SDS011;43673;51.058;3.734;2022-07-06T14:15:58;8.95;;;6.50;;
57842;SDS011;43673;51.058;3.734;2022-07-06T14:18:25;8.00;;;5.00;;
57842;SDS011;43673;51.058;3.734;2022-07-06T14:20:51;9.82;;;5.88;;
57842;SDS011;43673;51.058;3.734;2022-07-06T14:23:18;8.40;;;5.20;;
57842;SDS011;43673;51.058;3.734;2022-07-06T14:25:44;8.73;;;5.80;;
57842;SDS011;43673;51.058;3.734;2022-07-06T14:28:11;10.05;;;5.88;;
57842;SDS011;43673;51.058;3.734;2022-07-06T14:30:40;11.50;;;4.78;;
57842;SDS011;43673;51.058;3.734;2022-07-06T14:33:07;9.27;;;4.90;;
57842;SDS011;43673;51.058;3.734;2022-07-06T14:35:36;9.77;;;6.03;;
57842;SDS011;43673;51.058;3.734;2022-07-06T14:38:10;12.70;;;7.00;;
57842;SDS011;43673;51.058;3.734;2022-07-06T14:40:36;9.52;;;4.60;;
57842;SDS011;43673;51.058;3.734;2022-07-06T14:43:02;8.05;;;5.25;;
57842;SDS011;43673;51.058;3.734;2022-07-06T14:45:29;9.15;;;5.40;;
57842;SDS011;43673;51.058;3.734;2022-07-06T14:47:55;9.30;;;6.18;;
57842;SDS011;43673;51.058;3.734;2022-07-06T14:50:21;8.13;;;5.00;;
57842;SDS011;43673;51.058;3.734;2022-07-06T14:52:48;9.40;;;5.50;;
57842;SDS011;43673;51.058;3.734;2022-07-06T14:55:15;9.55;;;5.57;;
57842;SDS011;43673;51.058;3.734;2022-07-06T14:57:41;13.00;;;6.47;;
57842;SDS011;43673;51.058;3.734;2022-07-06T15:00:07;14.25;;;7.00;;
57842;SDS011;43673;51.058;3.734;2022-07-06T15:02:33;7.82;;;4.82;;
57842;SDS011;43673;51.058;3.734;2022-07-06T15:04:59;7.80;;;4.32;;
57842;SDS011;43673;51.058;3.734;2022-07-06T15:07:25;10.35;;;4.43;;
57842;SDS011;43673;51.058;3.734;2022-07-06T15:09:51;7.97;;;4.72;;
57842;SDS011;43673;51.058;3.734;2022-07-06T15:12:16;9.20;;;4.50;;
57842;SDS011;43673;51.058;3.734;2022-07-06T15:14:42;7.38;;;4.25;;
57842;SDS011;43673;51.058;3.734;2022-07-06T15:17:08;7.57;;;4.60;;
57842;SDS011;43673;51.058;3.734;2022-07-06T15:19:34;4.70;;;3.42;;
57842;SDS011;43673;51.058;3.734;2022-07-06T15:21:59;8.98;;;3.00;;
57842;SDS011;43673;51.058;3.734;2022-07-06T15:24:25;7.50;;;2.65;;
57842;SDS011;43673;51.058;3.734;2022-07-06T15:26:52;6.63;;;2.58;;
57842;SDS011;43673;51.058;3.734;2022-07-06T15:29:18;6.47;;;4.00;;
57842;SDS011;43673;51.058;3.734;2022-07-06T15:31:44;6.15;;;2.20;;